sensor_id;sensor_type;location;lat;lon;timestamp;pressure;altitude;pressure_sealevel;temperature;humidity
17649;BME280;8943;51.110;-4.158;2023-03-23T00:01:10;99162.53;;;14.38;49.78
17649;BME280;8943;51.110;-4.158;2023-03-23T00:03:43;99164.22;;;14.39;49.85
17649;BME280;8943;51.110;-4.158;2023-03-23T03:33:39;99143.31;;;13.23;53.02
17649;BME280;8943;51.110;-4.158;2023-03-23T04:28:30;99128.91;;;13.57;53.16
17649;BME280;8943;51.110;-4.158;2023-03-23T04:31:00;99137.38;;;13.60;52.94
17649;BME280;8943;51.110;-4.158;2023-03-23T04:33:29;99120.88;;;13.57;53.41
17649;BME280;8943;51.110;-4.158;2023-03-23T04:35:59;99121.53;;;13.59;53.26
17649;BME280;8943;51.110;-4.158;2023-03-23T04:41:07;99123.81;;;13.70;53.79
17649;BME280;8943;51.110;-4.158;2023-03-23T04:43:42;99118.47;;;13.70;54.02
17649;BME280;8943;51.110;-4.158;2023-03-23T04:46:11;99119.81;;;13.74;53.13
17649;BME280;8943;51.110;-4.158;2023-03-23T04:48:42;99125.16;;;13.74;53.45
17649;BME280;8943;51.110;-4.158;2023-03-23T05:29:51;99118.91;;;14.60;53.70
17649;BME280;8943;51.110;-4.158;2023-03-23T05:32:19;99112.81;;;14.66;53.61
17649;BME280;8943;51.110;-4.158;2023-03-23T05:34:47;99115.16;;;14.70;53.80
17649;BME280;8943;51.110;-4.158;2023-03-23T05:37:15;99109.72;;;14.78;53.29
17649;BME280;8943;51.110;-4.158;2023-03-23T05:40:17;99112.59;;;14.76;53.35
17649;BME280;8943;51.110;-4.158;2023-03-23T05:43:03;99112.78;;;14.75;53.84
17649;BME280;8943;51.110;-4.158;2023-03-23T05:49:22;99100.50;;;14.80;53.10
17649;BME280;8943;51.110;-4.158;2023-03-23T06:14:27;99108.13;;;14.91;52.45
17649;BME280;8943;51.110;-4.158;2023-03-23T06:17:00;99103.03;;;14.97;51.89
17649;BME280;8943;51.110;-4.158;2023-03-23T06:19:30;99111.56;;;15.00;52.09
17649;BME280;8943;51.110;-4.158;2023-03-23T06:22:02;99100.84;;;15.00;51.90
17649;BME280;8943;51.110;-4.158;2023-03-23T06:24:31;99102.50;;;15.01;51.97
17649;BME280;8943;51.110;-4.158;2023-03-23T06:27:01;99106.56;;;14.97;51.90
17649;BME280;8943;51.110;-4.158;2023-03-23T06:29:33;99095.00;;;14.97;51.85
17649;BME280;8943;51.110;-4.158;2023-03-23T06:32:03;99091.84;;;14.93;51.81
17649;BME280;8943;51.110;-4.158;2023-03-23T06:40:28;99090.31;;;14.76;52.04
17649;BME280;8943;51.110;-4.158;2023-03-23T06:42:57;99089.97;;;14.79;51.78
17649;BME280;8943;51.110;-4.158;2023-03-23T06:45:30;99091.97;;;14.77;52.38
17649;BME280;8943;51.110;-4.158;2023-03-23T06:48:00;99089.66;;;14.74;52.23
17649;BME280;8943;51.110;-4.158;2023-03-23T06:50:45;99100.84;;;14.77;51.74
17649;BME280;8943;51.110;-4.158;2023-03-23T06:53:26;99104.53;;;14.76;51.85
17649;BME280;8943;51.110;-4.158;2023-03-23T06:56:05;99102.88;;;14.75;52.40
17649;BME280;8943;51.110;-4.158;2023-03-23T06:58:35;99090.78;;;14.79;52.29
17649;BME280;8943;51.110;-4.158;2023-03-23T07:01:06;99099.28;;;14.83;52.47
17649;BME280;8943;51.110;-4.158;2023-03-23T07:03:34;99105.31;;;14.85;52.04
17649;BME280;8943;51.110;-4.158;2023-03-23T07:06:03;99101.28;;;14.89;52.45
17649;BME280;8943;51.110;-4.158;2023-03-23T07:08:30;99106.56;;;14.97;52.49
17649;BME280;8943;51.110;-4.158;2023-03-23T07:10:58;99106.41;;;14.99;52.63
17649;BME280;8943;51.110;-4.158;2023-03-23T07:13:26;99095.41;;;15.08;52.51
17649;BME280;8943;51.110;-4.158;2023-03-23T07:15:55;99102.72;;;15.14;52.51
17649;BME280;8943;51.110;-4.158;2023-03-23T07:18:33;99107.72;;;15.17;52.33
17649;BME280;8943;51.110;-4.158;2023-03-23T07:21:04;99108.84;;;15.23;52.35
17649;BME280;8943;51.110;-4.158;2023-03-23T07:23:41;99099.25;;;15.29;52.37
17649;BME280;8943;51.110;-4.158;2023-03-23T07:26:19;99098.03;;;15.31;52.42
17649;BME280;8943;51.110;-4.158;2023-03-23T07:28:47;99109.50;;;15.40;52.25
17649;BME280;8943;51.110;-4.158;2023-03-23T07:31:15;99112.47;;;15.45;52.43
17649;BME280;8943;51.110;-4.158;2023-03-23T07:33:58;99101.00;;;15.51;52.38
17649;BME280;8943;51.110;-4.158;2023-03-23T07:36:26;99093.63;;;15.53;51.99
17649;BME280;8943;51.110;-4.158;2023-03-23T07:38:56;99107.94;;;15.60;51.99
17649;BME280;8943;51.110;-4.158;2023-03-23T07:41:24;99103.91;;;15.64;51.96
17649;BME280;8943;51.110;-4.158;2023-03-23T07:43:58;99117.63;;;15.69;51.90
17649;BME280;8943;51.110;-4.158;2023-03-23T07:46:27;99118.56;;;15.77;51.73
17649;BME280;8943;51.110;-4.158;2023-03-23T07:49:03;99120.22;;;15.78;51.73
17649;BME280;8943;51.110;-4.158;2023-03-23T07:51:32;99121.78;;;15.87;51.76
17649;BME280;8943;51.110;-4.158;2023-03-23T07:54:00;99124.09;;;15.90;51.20
17649;BME280;8943;51.110;-4.158;2023-03-23T07:56:29;99127.06;;;15.95;50.98
17649;BME280;8943;51.110;-4.158;2023-03-23T07:58:57;99139.19;;;16.06;50.89
17649;BME280;8943;51.110;-4.158;2023-03-23T08:01:24;99133.06;;;16.12;50.34
17649;BME280;8943;51.110;-4.158;2023-03-23T08:03:55;99127.13;;;16.16;50.32
17649;BME280;8943;51.110;-4.158;2023-03-23T08:06:42;99134.38;;;16.16;49.98
17649;BME280;8943;51.110;-4.158;2023-03-23T08:09:22;99133.16;;;16.18;49.52
17649;BME280;8943;51.110;-4.158;2023-03-23T08:11:49;99127.78;;;16.18;49.58
17649;BME280;8943;51.110;-4.158;2023-03-23T08:14:17;99118.31;;;16.22;49.67
17649;BME280;8943;51.110;-4.158;2023-03-23T08:16:44;99127.28;;;16.30;49.32
17649;BME280;8943;51.110;-4.158;2023-03-23T08:19:11;99129.25;;;16.36;49.46
17649;BME280;8943;51.110;-4.158;2023-03-23T08:21:44;99125.53;;;16.37;49.27
17649;BME280;8943;51.110;-4.158;2023-03-23T08:24:11;99118.09;;;16.39;48.87
17649;BME280;8943;51.110;-4.158;2023-03-23T08:26:39;99125.06;;;16.33;48.97
17649;BME280;8943;51.110;-4.158;2023-03-23T08:29:09;99115.53;;;16.31;49.22
17649;BME280;8943;51.110;-4.158;2023-03-23T08:31:38;99121.34;;;16.34;49.33
17649;BME280;8943;51.110;-4.158;2023-03-23T08:34:10;99133.66;;;16.43;49.26
17649;BME280;8943;51.110;-4.158;2023-03-23T08:36:42;99143.47;;;16.51;49.26
17649;BME280;8943;51.110;-4.158;2023-03-23T08:39:29;99137.78;;;16.61;49.08
17649;BME280;8943;51.110;-4.158;2023-03-23T08:42:13;99124.03;;;16.70;48.88
17649;BME280;8943;51.110;-4.158;2023-03-23T08:44:57;99126.53;;;16.72;49.02
17649;BME280;8943;51.110;-4.158;2023-03-23T08:47:25;99122.09;;;16.79;48.83
17649;BME280;8943;51.110;-4.158;2023-03-23T09:03:35;99099.75;;;17.07;48.62
17649;BME280;8943;51.110;-4.158;2023-03-23T09:14:42;99115.19;;;17.19;47.76
17649;BME280;8943;51.110;-4.158;2023-03-23T09:17:13;99134.66;;;17.21;46.79
17649;BME280;8943;51.110;-4.158;2023-03-23T09:19:43;99106.72;;;17.22;46.51
17649;BME280;8943;51.110;-4.158;2023-03-23T09:22:10;99117.88;;;17.19;46.78
17649;BME280;8943;51.110;-4.158;2023-03-23T09:45:36;99145.00;;;17.18;46.50
17649;BME280;8943;51.110;-4.158;2023-03-23T09:48:27;99148.38;;;17.27;46.20
17649;BME280;8943;51.110;-4.158;2023-03-23T09:51:02;99155.47;;;17.34;46.13
17649;BME280;8943;51.110;-4.158;2023-03-23T09:53:36;99144.16;;;17.45;46.01
17649;BME280;8943;51.110;-4.158;2023-03-23T09:59:04;99155.63;;;17.54;45.53
17649;BME280;8943;51.110;-4.158;2023-03-23T10:05:29;99149.06;;;17.63;45.56
17649;BME280;8943;51.110;-4.158;2023-03-23T10:08:15;99136.69;;;17.69;45.23
17649;BME280;8943;51.110;-4.158;2023-03-23T10:10:58;99145.03;;;17.74;45.42
17649;BME280;8943;51.110;-4.158;2023-03-23T10:13:56;99150.19;;;17.75;44.45
17649;BME280;8943;51.110;-4.158;2023-03-23T10:22:52;99144.28;;;17.87;44.18
17649;BME280;8943;51.110;-4.158;2023-03-23T10:25:24;99148.22;;;17.91;43.82
17649;BME280;8943;51.110;-4.158;2023-03-23T10:27:58;99145.16;;;18.00;44.12
17649;BME280;8943;51.110;-4.158;2023-03-23T10:51:00;99123.50;;;18.76;41.85
17649;BME280;8943;51.110;-4.158;2023-03-23T11:34:24;99090.72;;;19.13;41.72
17649;BME280;8943;51.110;-4.158;2023-03-23T12:17:03;99053.88;;;18.32;42.38
17649;BME280;8943;51.110;-4.158;2023-03-23T12:19:49;99034.19;;;18.45;42.00
17649;BME280;8943;51.110;-4.158;2023-03-23T12:22:31;99035.63;;;18.54;41.54
17649;BME280;8943;51.110;-4.158;2023-03-23T12:25:17;99040.44;;;18.65;41.29
17649;BME280;8943;51.110;-4.158;2023-03-23T12:27:53;99057.06;;;18.69;41.50
17649;BME280;8943;51.110;-4.158;2023-03-23T12:30:32;99058.75;;;18.70;41.94
17649;BME280;8943;51.110;-4.158;2023-03-23T12:33:18;99071.41;;;18.69;41.93
17649;BME280;8943;51.110;-4.158;2023-03-23T12:44:02;99044.59;;;18.61;43.22
17649;BME280;8943;51.110;-4.158;2023-03-23T12:46:54;99031.16;;;18.74;43.36
17649;BME280;8943;51.110;-4.158;2023-03-23T12:49:31;99029.69;;;18.78;42.98
17649;BME280;8943;51.110;-4.158;2023-03-23T12:52:04;99017.88;;;18.80;43.53
17649;BME280;8943;51.110;-4.158;2023-03-23T12:54:40;99011.44;;;18.81;43.69
17649;BME280;8943;51.110;-4.158;2023-03-23T12:57:16;99005.19;;;18.80;43.77
17649;BME280;8943;51.110;-4.158;2023-03-23T12:59:50;99003.94;;;18.83;44.13
17649;BME280;8943;51.110;-4.158;2023-03-23T13:02:23;98992.53;;;18.87;44.04
17649;BME280;8943;51.110;-4.158;2023-03-23T13:04:58;99001.06;;;18.84;44.40
17649;BME280;8943;51.110;-4.158;2023-03-23T13:07:33;98980.09;;;18.80;45.13
17649;BME280;8943;51.110;-4.158;2023-03-23T13:10:04;98986.31;;;18.80;44.99
17649;BME280;8943;51.110;-4.158;2023-03-23T13:12:36;98983.41;;;18.82;44.71
17649;BME280;8943;51.110;-4.158;2023-03-23T13:15:17;98967.84;;;18.70;45.15
17649;BME280;8943;51.110;-4.158;2023-03-23T13:17:54;98962.81;;;18.67;45.14
17649;BME280;8943;51.110;-4.158;2023-03-23T13:20:59;98967.38;;;18.53;45.71
17649;BME280;8943;51.110;-4.158;2023-03-23T13:23:38;98964.06;;;18.38;45.63
17649;BME280;8943;51.110;-4.158;2023-03-23T13:26:13;98951.59;;;18.24;46.17
17649;BME280;8943;51.110;-4.158;2023-03-23T13:28:55;98952.84;;;18.15;46.39
17649;BME280;8943;51.110;-4.158;2023-03-23T13:31:27;98938.75;;;18.06;46.77
17649;BME280;8943;51.110;-4.158;2023-03-23T13:34:05;98925.22;;;17.93;46.59
17649;BME280;8943;51.110;-4.158;2023-03-23T13:36:38;98931.84;;;17.84;46.08
17649;BME280;8943;51.110;-4.158;2023-03-23T13:39:21;98937.78;;;17.72;46.16
17649;BME280;8943;51.110;-4.158;2023-03-23T13:42:05;98947.09;;;17.63;46.30
17649;BME280;8943;51.110;-4.158;2023-03-23T13:45:04;98974.59;;;17.52;47.27
17649;BME280;8943;51.110;-4.158;2023-03-23T13:47:39;98989.03;;;17.44;47.64
17649;BME280;8943;51.110;-4.158;2023-03-23T13:50:12;98975.56;;;17.38;48.28
17649;BME280;8943;51.110;-4.158;2023-03-23T13:53:14;98989.97;;;17.23;48.22
17649;BME280;8943;51.110;-4.158;2023-03-23T13:56:16;98982.25;;;17.14;49.08
17649;BME280;8943;51.110;-4.158;2023-03-23T13:58:49;98972.88;;;17.03;48.97
17649;BME280;8943;51.110;-4.158;2023-03-23T14:01:34;98961.81;;;16.91;49.61
17649;BME280;8943;51.110;-4.158;2023-03-23T14:04:13;98957.16;;;16.79;49.77
17649;BME280;8943;51.110;-4.158;2023-03-23T14:06:55;98959.75;;;16.65;50.03
17649;BME280;8943;51.110;-4.158;2023-03-23T14:37:04;98955.75;;;16.12;52.22
17649;BME280;8943;51.110;-4.158;2023-03-23T14:39:58;98946.47;;;16.14;52.33
17649;BME280;8943;51.110;-4.158;2023-03-23T14:43:09;98934.63;;;16.09;52.46
17649;BME280;8943;51.110;-4.158;2023-03-23T14:46:05;98936.88;;;16.05;52.64
17649;BME280;8943;51.110;-4.158;2023-03-23T14:48:39;98932.53;;;16.04;52.54
17649;BME280;8943;51.110;-4.158;2023-03-23T14:51:19;98932.16;;;16.07;52.81
17649;BME280;8943;51.110;-4.158;2023-03-23T14:53:58;98937.53;;;16.07;52.82
17649;BME280;8943;51.110;-4.158;2023-03-23T14:59:26;98923.63;;;16.04;53.03
17649;BME280;8943;51.110;-4.158;2023-03-23T15:04:35;98907.72;;;16.02;52.98
17649;BME280;8943;51.110;-4.158;2023-03-23T15:07:09;98911.69;;;16.06;52.44
17649;BME280;8943;51.110;-4.158;2023-03-23T15:10:15;98904.84;;;16.04;53.05
17649;BME280;8943;51.110;-4.158;2023-03-23T15:13:04;98901.31;;;16.03;52.99
17649;BME280;8943;51.110;-4.158;2023-03-23T15:15:45;98891.81;;;16.01;53.04
17649;BME280;8943;51.110;-4.158;2023-03-23T19:06:13;98816.91;;;15.48;53.58
17649;BME280;8943;51.110;-4.158;2023-03-23T19:08:45;98819.75;;;15.46;53.53
17649;BME280;8943;51.110;-4.158;2023-03-23T19:17:10;98823.78;;;15.36;54.07
17649;BME280;8943;51.110;-4.158;2023-03-23T19:19:49;98819.19;;;15.30;53.48
17649;BME280;8943;51.110;-4.158;2023-03-23T19:25:17;98822.63;;;15.24;53.38
17649;BME280;8943;51.110;-4.158;2023-03-23T19:27:48;98824.28;;;15.25;53.74
17649;BME280;8943;51.110;-4.158;2023-03-23T19:30:24;98830.41;;;15.18;53.80
17649;BME280;8943;51.110;-4.158;2023-03-23T19:33:00;98824.22;;;15.18;53.48
17649;BME280;8943;51.110;-4.158;2023-03-23T19:35:33;98831.59;;;15.16;53.63
17649;BME280;8943;51.110;-4.158;2023-03-23T19:38:04;98846.50;;;15.18;53.48
17649;BME280;8943;51.110;-4.158;2023-03-23T19:43:41;98843.91;;;15.10;52.89
17649;BME280;8943;51.110;-4.158;2023-03-23T19:46:13;98844.69;;;15.04;53.33
17649;BME280;8943;51.110;-4.158;2023-03-23T19:51:37;98852.06;;;15.02;53.54
17649;BME280;8943;51.110;-4.158;2023-03-23T19:54:11;98854.94;;;15.01;53.47
17649;BME280;8943;51.110;-4.158;2023-03-23T19:57:02;98863.53;;;14.96;53.55
17649;BME280;8943;51.110;-4.158;2023-03-23T19:59:40;98863.53;;;14.96;53.80
17649;BME280;8943;51.110;-4.158;2023-03-23T20:02:26;98865.47;;;15.02;53.70
17649;BME280;8943;51.110;-4.158;2023-03-23T20:04:55;98871.22;;;14.99;54.18
17649;BME280;8943;51.110;-4.158;2023-03-23T20:07:23;98866.50;;;15.01;54.13
17649;BME280;8943;51.110;-4.158;2023-03-23T20:09:52;98870.84;;;15.02;54.19
17649;BME280;8943;51.110;-4.158;2023-03-23T20:12:22;98873.16;;;15.05;54.00
17649;BME280;8943;51.110;-4.158;2023-03-23T20:14:56;98879.81;;;15.09;54.21
17649;BME280;8943;51.110;-4.158;2023-03-23T20:17:25;98879.69;;;15.17;53.77
17649;BME280;8943;51.110;-4.158;2023-03-23T20:22:47;98879.97;;;15.23;53.08
17649;BME280;8943;51.110;-4.158;2023-03-23T20:28:03;98881.25;;;15.27;52.53
17649;BME280;8943;51.110;-4.158;2023-03-23T20:33:48;98897.47;;;15.18;53.62
17649;BME280;8943;51.110;-4.158;2023-03-23T20:36:53;98891.91;;;15.20;53.04
17649;BME280;8943;51.110;-4.158;2023-03-23T20:50:09;98921.34;;;14.99;53.27
17649;BME280;8943;51.110;-4.158;2023-03-23T20:52:39;98926.31;;;15.02;53.43
17649;BME280;8943;51.110;-4.158;2023-03-23T20:55:10;98920.13;;;15.01;53.04
17649;BME280;8943;51.110;-4.158;2023-03-23T20:57:41;98948.81;;;15.01;53.18
17649;BME280;8943;51.110;-4.158;2023-03-23T21:00:11;98932.16;;;15.05;53.43
17649;BME280;8943;51.110;-4.158;2023-03-23T21:02:44;98948.25;;;15.05;52.85
17649;BME280;8943;51.110;-4.158;2023-03-23T21:05:17;98937.16;;;15.08;53.22
17649;BME280;8943;51.110;-4.158;2023-03-23T21:13:17;98944.28;;;15.01;53.43
17649;BME280;8943;51.110;-4.158;2023-03-23T21:15:47;98956.66;;;15.02;53.90
17649;BME280;8943;51.110;-4.158;2023-03-23T21:18:18;98953.97;;;15.02;53.87
17649;BME280;8943;51.110;-4.158;2023-03-23T21:20:51;98973.22;;;15.06;53.72
17649;BME280;8943;51.110;-4.158;2023-03-23T21:23:20;98987.47;;;15.06;53.72
17649;BME280;8943;51.110;-4.158;2023-03-23T21:25:53;98969.34;;;15.08;53.63
17649;BME280;8943;51.110;-4.158;2023-03-23T21:28:26;98990.69;;;15.16;53.50
17649;BME280;8943;51.110;-4.158;2023-03-23T21:30:59;98998.47;;;15.11;53.83
17649;BME280;8943;51.110;-4.158;2023-03-23T21:33:28;98976.66;;;15.14;53.18
17649;BME280;8943;51.110;-4.158;2023-03-23T21:35:58;98975.34;;;15.10;53.72
17649;BME280;8943;51.110;-4.158;2023-03-23T21:38:28;98990.81;;;15.08;52.98
17649;BME280;8943;51.110;-4.158;2023-03-23T21:40:58;98998.84;;;15.08;53.21
17649;BME280;8943;51.110;-4.158;2023-03-23T21:43:27;98995.16;;;15.09;53.38
17649;BME280;8943;51.110;-4.158;2023-03-23T21:45:58;99007.06;;;15.07;53.43
17649;BME280;8943;51.110;-4.158;2023-03-23T21:48:29;99011.78;;;15.05;53.46
17649;BME280;8943;51.110;-4.158;2023-03-23T21:51:06;99000.22;;;15.04;53.53
17649;BME280;8943;51.110;-4.158;2023-03-23T21:53:35;99021.69;;;15.04;53.82
17649;BME280;8943;51.110;-4.158;2023-03-23T21:56:07;99029.06;;;15.02;53.51
17649;BME280;8943;51.110;-4.158;2023-03-23T21:58:37;99027.75;;;14.98;53.68
17649;BME280;8943;51.110;-4.158;2023-03-23T22:01:05;99021.41;;;14.99;53.66
17649;BME280;8943;51.110;-4.158;2023-03-23T22:03:34;99015.31;;;15.05;53.37
17649;BME280;8943;51.110;-4.158;2023-03-23T22:06:14;99012.06;;;14.95;53.31
17649;BME280;8943;51.110;-4.158;2023-03-23T22:08:45;99017.03;;;14.98;53.57
17649;BME280;8943;51.110;-4.158;2023-03-23T22:11:15;99008.00;;;14.99;53.23
17649;BME280;8943;51.110;-4.158;2023-03-23T22:13:49;99029.44;;;14.99;52.67
17649;BME280;8943;51.110;-4.158;2023-03-23T22:16:19;99028.16;;;14.95;52.87
17649;BME280;8943;51.110;-4.158;2023-03-23T22:18:50;99044.97;;;14.89;53.06
17649;BME280;8943;51.110;-4.158;2023-03-23T22:21:30;99041.63;;;14.87;52.58
17649;BME280;8943;51.110;-4.158;2023-03-23T22:24:02;99044.69;;;14.84;52.71
17649;BME280;8943;51.110;-4.158;2023-03-23T22:26:31;99040.50;;;14.81;53.18
17649;BME280;8943;51.110;-4.158;2023-03-23T22:29:03;99038.47;;;14.83;52.70
17649;BME280;8943;51.110;-4.158;2023-03-23T22:31:37;99045.31;;;14.86;52.94
17649;BME280;8943;51.110;-4.158;2023-03-23T22:34:08;99047.47;;;14.90;52.70
17649;BME280;8943;51.110;-4.158;2023-03-23T22:36:39;99053.66;;;14.91;52.40
17649;BME280;8943;51.110;-4.158;2023-03-23T22:39:09;99061.50;;;14.92;52.57
17649;BME280;8943;51.110;-4.158;2023-03-23T22:41:40;99052.34;;;14.87;52.83
17649;BME280;8943;51.110;-4.158;2023-03-23T22:44:16;99044.38;;;14.79;52.91
17649;BME280;8943;51.110;-4.158;2023-03-23T22:46:45;99053.81;;;14.75;52.66
17649;BME280;8943;51.110;-4.158;2023-03-23T22:49:14;99049.13;;;14.68;52.71
17649;BME280;8943;51.110;-4.158;2023-03-23T22:51:46;99055.72;;;14.66;52.60
17649;BME280;8943;51.110;-4.158;2023-03-23T22:54:20;99066.44;;;14.66;52.64
17649;BME280;8943;51.110;-4.158;2023-03-23T22:56:50;99072.31;;;14.61;52.53
17649;BME280;8943;51.110;-4.158;2023-03-23T23:11:09;99075.25;;;14.43;52.00
17649;BME280;8943;51.110;-4.158;2023-03-23T23:13:46;99083.81;;;14.39;51.47
17649;BME280;8943;51.110;-4.158;2023-03-23T23:19:04;99089.72;;;14.34;52.19
17649;BME280;8943;51.110;-4.158;2023-03-23T23:47:16;99108.97;;;14.07;51.94
